Time;durP1;ratioP1;P1;durP2;ratioP2;P2;SDS_P1;SDS_P2;PMS_P1;PMS_P2;Temp;Humidity;BMP_temperature;BMP_pressure;BME280_temperature;BME280_humidity;BME280_pressure;Samples;Min_cycle;Max_cycle;Signal;HPM_P1;HPM_P2
2022/05/11 00:02:07;;;;;;;16.60;15.88;;;;;;;-141.02;100.00;55844.97;5094656;28;20189;-81
2022/05/11 00:04:34;;;;;;;16.90;16.10;;;;;;;-141.02;100.00;55844.97;5094842;28;20194;-78
2022/05/11 00:07:01;;;;;;;17.40;16.60;;;;;;;-141.02;100.00;55844.97;5095700;28;20247;-78
2022/05/11 00:09:28;;;;;;;17.40;16.60;;;;;;;-141.02;100.00;55844.97;5095632;28;20632;-80
2022/05/11 00:11:55;;;;;;;17.33;16.52;;;;;;;-141.02;100.00;55844.97;5095277;28;20277;-77
2022/05/11 00:14:22;;;;;;;17.20;16.40;;;;;;;-141.02;100.00;55844.97;5094837;28;20293;-79
2022/05/11 00:16:51;;;;;;;17.15;16.40;;;;;;;-141.02;100.00;55844.97;5093612;28;20200;-79
2022/05/11 00:19:21;;;;;;;17.17;16.38;;;;;;;-141.02;100.00;55844.97;5095236;28;20243;-78
2022/05/11 00:21:48;;;;;;;16.30;15.60;;;;;;;-141.02;100.00;55844.97;5093045;28;20194;-77
2022/05/11 00:24:15;;;;;;;16.63;15.93;;;;;;;-141.02;100.00;55844.97;5093670;28;20208;-78
2022/05/11 00:26:42;;;;;;;16.85;16.05;;;;;;;-141.02;100.00;55844.97;5093739;28;20193;-77
2022/05/11 00:29:09;;;;;;;16.30;15.60;;;;;;;-141.02;100.00;55844.97;5093303;28;20284;-78
2022/05/11 00:31:36;;;;;;;15.95;15.25;;;;;;;-141.02;100.00;55844.97;5092885;28;20264;-77
2022/05/11 00:34:04;;;;;;;16.98;16.17;;;;;;;-141.02;100.00;55844.97;5093092;28;20233;-77
2022/05/11 00:36:31;;;;;;;15.82;15.13;;;;;;;-141.02;100.00;55844.97;5093553;28;20288;-76
2022/05/11 00:38:58;;;;;;;16.60;15.90;;;;;;;-141.02;100.00;55844.97;5093095;28;20731;-77
2022/05/11 00:41:25;;;;;;;17.40;16.60;;;;;;;-141.02;100.00;55844.97;5093284;28;20700;-78
2022/05/11 00:43:54;;;;;;;16.23;15.52;;;;;;;-141.02;100.00;55844.97;5093238;28;20236;-78
2022/05/11 00:46:28;;;;;;;16.60;15.90;;;;;;;-141.02;100.00;55844.97;5092999;28;20197;-78
2022/05/11 00:51:48;;;;;;;15.90;15.20;;;;;;;-141.02;100.00;55844.97;5093212;28;20235;-78
2022/05/11 00:54:18;;;;;;;15.98;15.27;;;;;;;-141.02;100.00;55844.97;5092828;28;20281;-78
2022/05/11 00:56:49;;;;;;;16.60;15.90;;;;;;;-141.02;100.00;55844.97;5092640;28;20276;-78
2022/05/11 00:59:20;;;;;;;16.67;15.98;;;;;;;-141.02;100.00;55844.97;5092666;28;20192;-77
2022/05/11 01:01:47;;;;;;;16.73;16.02;;;;;;;-141.02;100.00;55844.97;5092137;28;20193;-78
2022/05/11 01:04:18;;;;;;;17.17;16.37;;;;;;;-141.02;100.00;55844.97;5092456;28;20284;-77
2022/05/11 01:06:48;;;;;;;16.77;16.00;;;;;;;-141.02;100.00;55844.97;5092122;28;20197;-77
2022/05/11 01:09:15;;;;;;;16.77;16.05;;;;;;;-141.02;100.00;55844.97;5092029;28;20202;-79
2022/05/11 01:11:47;;;;;;;16.27;15.57;;;;;;;-141.02;100.00;55844.97;5092373;28;20201;-76
2022/05/11 01:14:17;;;;;;;16.38;15.68;;;;;;;-141.02;100.00;55844.97;5092068;28;20221;-76
2022/05/11 01:16:44;;;;;;;17.83;17.02;;;;;;;-141.02;100.00;55844.97;5092408;28;20229;-77
2022/05/11 01:19:19;;;;;;;17.20;16.40;;;;;;;-141.02;100.00;55844.97;5092308;28;20225;-77
2022/05/11 01:21:55;;;;;;;18.27;17.47;;;;;;;-141.02;100.00;55844.97;5092107;28;20200;-78
2022/05/11 01:24:32;;;;;;;17.40;16.60;;;;;;;-141.02;100.00;55844.97;5095685;28;20196;-77
2022/05/11 01:26:59;;;;;;;17.25;16.45;;;;;;;-141.02;100.00;55844.97;5096336;28;20196;-78
2022/05/11 01:29:26;;;;;;;17.70;16.90;;;;;;;-141.02;100.00;55844.97;5096380;28;20240;-78
2022/05/11 01:31:53;;;;;;;17.90;17.10;;;;;;;-141.02;100.00;55844.97;5095849;28;20272;-78
2022/05/11 01:34:25;;;;;;;17.92;17.13;;;;;;;-141.02;100.00;55844.97;5096135;28;20659;-77
2022/05/11 01:36:56;;;;;;;17.57;16.77;;;;;;;-141.02;100.00;55844.97;5095999;28;20189;-78
2022/05/11 01:39:23;;;;;;;18.00;17.20;;;;;;;-141.02;100.00;55844.97;5095907;28;20212;-77
2022/05/11 01:41:55;;;;;;;17.60;16.80;;;;;;;-141.02;100.00;55844.97;5095678;28;20678;-77
2022/05/11 01:44:23;;;;;;;17.35;16.55;;;;;;;-141.02;100.00;55844.97;5095656;28;20194;-77
2022/05/11 01:46:52;;;;;;;17.07;16.27;;;;;;;-141.02;100.00;55844.97;5096032;28;20285;-79
2022/05/11 01:49:20;;;;;;;17.13;16.33;;;;;;;-141.02;100.00;55844.97;5095657;28;20264;-78
2022/05/11 01:51:47;;;;;;;17.42;16.63;;;;;;;-141.02;100.00;55844.97;5095780;28;20613;-78
2022/05/11 01:54:14;;;;;;;17.95;17.15;;;;;;;-141.02;100.00;55844.97;5095447;28;20323;-77
2022/05/11 01:56:42;;;;;;;17.80;17.00;;;;;;;-141.02;100.00;55844.97;5095779;28;20194;-77
2022/05/11 01:59:10;;;;;;;17.85;17.05;;;;;;;-141.02;100.00;55844.97;5095806;28;20201;-76
2022/05/11 02:01:40;;;;;;;17.35;16.55;;;;;;;-141.02;100.00;55844.97;5096696;28;20557;-77
2022/05/11 02:07:49;;;;;;;17.80;17.00;;;;;;;-141.02;100.00;55844.97;5095272;28;20250;-77
2022/05/11 02:09:43;;;;;;;17.42;16.63;;;;;;;-141.02;100.00;55844.97;5069248;28;20201;-79
2022/05/11 02:12:11;;;;;;;17.50;16.70;;;;;;;-141.02;100.00;55844.97;5095087;28;20293;-77
2022/05/11 02:14:40;;;;;;;17.08;16.27;;;;;;;-141.02;100.00;55844.97;5095101;28;20200;-78
2022/05/11 02:17:07;;;;;;;17.30;16.50;;;;;;;-141.02;100.00;55844.97;5094982;28;20664;-78
2022/05/11 02:19:34;;;;;;;17.15;16.35;;;;;;;-141.02;100.00;55844.97;5095242;28;20233;-78
2022/05/11 02:22:01;;;;;;;17.20;16.40;;;;;;;-141.02;100.00;55844.97;5095285;28;20272;-77
2022/05/11 02:24:28;;;;;;;16.90;16.10;;;;;;;-141.02;100.00;55844.97;5094838;28;20287;-78
2022/05/11 02:26:54;;;;;;;16.70;16.00;;;;;;;-141.02;100.00;55844.97;5095227;28;20221;-78
2022/05/11 02:29:23;;;;;;;17.27;16.47;;;;;;;-141.02;100.00;55844.97;5095095;28;20229;-78
2022/05/11 02:31:51;;;;;;;17.05;16.35;;;;;;;-141.02;100.00;55844.97;5094715;28;20225;-78
2022/05/11 02:36:59;;;;;;;17.13;16.33;;;;;;;-141.02;100.00;55844.97;5094306;28;20194;-79
2022/05/11 02:39:26;;;;;;;16.17;15.47;;;;;;;-141.02;100.00;55844.97;5094905;28;20297;-78
2022/05/11 02:41:54;;;;;;;16.57;15.87;;;;;;;-141.02;100.00;55844.97;5094867;28;20280;-79
2022/05/11 02:44:21;;;;;;;17.07;16.27;;;;;;;-141.02;100.00;55844.97;5094469;28;20200;-78
2022/05/11 02:46:49;;;;;;;16.97;16.20;;;;;;;-141.02;100.00;55844.97;5094724;28;20222;-78
2022/05/11 02:49:18;;;;;;;17.20;16.40;;;;;;;-141.02;100.00;55844.97;5094723;28;20314;-79
2022/05/11 02:51:45;;;;;;;17.23;16.43;;;;;;;-141.02;100.00;55844.97;5094591;28;20201;-79
2022/05/11 02:54:12;;;;;;;17.60;16.80;;;;;;;-141.02;100.00;55844.97;5094276;28;20277;-77
2022/05/11 02:56:41;;;;;;;17.80;17.00;;;;;;;-141.02;100.00;55844.97;5094235;28;20236;-78
2022/05/11 02:59:08;;;;;;;17.97;17.17;;;;;;;-141.02;100.00;55844.97;5094530;28;20226;-80
2022/05/11 03:01:35;;;;;;;17.60;16.80;;;;;;;-141.02;100.00;55844.97;5094407;28;20194;-77
2022/05/11 03:04:02;;;;;;;16.87;16.17;;;;;;;-141.02;100.00;55844.97;5094355;28;20194;-79
2022/05/11 03:06:30;;;;;;;16.70;16.00;;;;;;;-141.02;100.00;55844.97;5094390;28;20280;-78
2022/05/11 03:08:57;;;;;;;16.57;15.87;;;;;;;-141.02;100.00;55844.97;5093940;28;20225;-78
2022/05/11 03:11:24;;;;;;;16.30;15.60;;;;;;;-141.02;100.00;55844.97;5094288;28;20229;-78
2022/05/11 03:13:51;;;;;;;16.83;16.03;;;;;;;-141.02;100.00;55844.97;5093904;28;20731;-80
2022/05/11 03:16:18;;;;;;;16.40;15.70;;;;;;;-141.02;100.00;55844.97;5094153;28;20281;-78
2022/05/11 03:18:45;;;;;;;16.50;15.80;;;;;;;-141.02;100.00;55844.97;5094104;28;20198;-78
2022/05/11 03:21:12;;;;;;;16.63;15.83;;;;;;;-141.02;100.00;55844.97;5093983;28;20221;-80
2022/05/11 03:23:42;;;;;;;16.17;15.47;;;;;;;-141.02;100.00;55844.97;5093743;28;20193;-80
2022/05/11 03:26:11;;;;;;;16.40;15.70;;;;;;;-141.02;100.00;55844.97;5094025;28;20202;-78
2022/05/11 03:28:39;;;;;;;16.30;15.60;;;;;;;-141.02;100.00;55844.97;5093833;28;20234;-78
2022/05/11 03:31:06;;;;;;;16.73;15.93;;;;;;;-141.02;100.00;55844.97;5093551;28;20308;-78
2022/05/11 03:36:17;;;;;;;16.30;15.50;;;;;;;-141.02;100.00;55844.97;5093891;28;20181;-78
2022/05/11 03:38:46;;;;;;;15.83;15.13;;;;;;;-141.02;100.00;55844.97;5093423;28;20292;-78
2022/05/11 03:41:13;;;;;;;16.20;15.50;;;;;;;-141.02;100.00;55844.97;5093409;28;20198;-78
2022/05/11 03:43:40;;;;;;;16.17;15.47;;;;;;;-141.02;100.00;55844.97;5093691;28;20205;-78
2022/05/11 03:46:07;;;;;;;17.00;16.20;;;;;;;-141.02;100.00;55844.97;5092983;28;20717;-78
2022/05/11 03:48:35;;;;;;;16.83;16.02;;;;;;;-141.02;100.00;55844.97;5093182;28;20319;-78
2022/05/11 03:51:02;;;;;;;16.92;16.13;;;;;;;-141.02;100.00;55844.97;5093195;28;20293;-78
2022/05/11 03:53:29;;;;;;;16.70;15.90;;;;;;;-141.02;100.00;55844.97;5093187;28;20628;-78
2022/05/11 03:55:57;;;;;;;17.70;16.90;;;;;;;-141.02;100.00;55844.97;5093049;28;20546;-78
2022/05/11 03:58:24;;;;;;;17.80;16.90;;;;;;;-141.02;100.00;55844.97;5093431;28;20301;-78
2022/05/11 04:00:52;;;;;;;17.73;16.83;;;;;;;-141.02;100.00;55844.97;5093320;28;20198;-79
2022/05/11 04:03:19;;;;;;;18.02;17.13;;;;;;;-141.02;100.00;55844.97;5093067;28;20204;-78
2022/05/11 04:05:46;;;;;;;17.45;16.55;;;;;;;-141.02;100.00;55844.97;5093029;28;20193;-79
2022/05/11 04:08:13;;;;;;;18.00;17.10;;;;;;;-141.02;100.00;55844.97;5093140;28;20256;-78
2022/05/11 04:10:40;;;;;;;18.42;17.42;;;;;;;-141.02;100.00;55844.97;5092801;28;20716;-78
2022/05/11 04:13:09;;;;;;;19.08;18.08;;;;;;;-141.02;100.00;55844.97;5093096;28;20197;-78
2022/05/11 04:15:36;;;;;;;19.08;18.08;;;;;;;-141.02;100.00;55844.97;5092748;28;20736;-80
2022/05/11 04:18:03;;;;;;;19.02;18.02;;;;;;;-141.02;100.00;55844.97;5093025;28;20198;-79
2022/05/11 04:20:30;;;;;;;18.70;17.70;;;;;;;-141.02;100.00;55844.97;5093003;28;20576;-78
2022/05/11 04:22:57;;;;;;;18.92;17.92;;;;;;;-141.02;100.00;55844.97;5092642;28;20194;-79
2022/05/11 04:25:24;;;;;;;18.10;17.20;;;;;;;-141.02;100.00;55844.97;5092617;28;20285;-79
2022/05/11 04:27:51;;;;;;;18.23;17.33;;;;;;;-141.02;100.00;55844.97;5092611;28;20194;-78
2022/05/11 04:30:22;;;;;;;16.95;16.15;;;;;;;-141.02;100.00;55844.97;5092917;28;20190;-79
2022/05/11 04:32:49;;;;;;;16.15;15.43;;;;;;;-141.02;100.00;55844.97;5092639;28;20349;-79
2022/05/11 04:35:17;;;;;;;16.58;15.80;;;;;;;-141.02;100.00;55844.97;5092473;28;20281;-79
2022/05/11 04:37:45;;;;;;;16.30;15.60;;;;;;;-141.02;100.00;55844.97;5092783;28;20636;-79
2022/05/11 04:40:13;;;;;;;16.77;15.98;;;;;;;-141.02;100.00;55844.97;5092697;28;20197;-79
2022/05/11 04:42:40;;;;;;;16.30;15.50;;;;;;;-141.02;100.00;55844.97;5092305;28;20225;-79
2022/05/11 04:45:07;;;;;;;16.30;15.50;;;;;;;-141.02;100.00;55844.97;5092336;28;20674;-80
2022/05/11 04:47:36;;;;;;;15.90;15.20;;;;;;;-141.02;100.00;55844.97;5092583;28;20200;-80
2022/05/11 04:50:03;;;;;;;16.83;16.02;;;;;;;-141.02;100.00;55844.97;5092478;28;20226;-80
2022/05/11 04:52:30;;;;;;;17.83;17.02;;;;;;;-141.02;100.00;55844.97;5092530;28;20204;-80
2022/05/11 04:54:58;;;;;;;17.92;17.02;;;;;;;-141.02;100.00;55844.97;5092460;28;20276;-81
2022/05/11 04:57:25;;;;;;;17.48;16.67;;;;;;;-141.02;100.00;55844.97;5091385;28;20204;-80
2022/05/11 04:59:52;;;;;;;16.90;16.10;;;;;;;-141.02;100.00;55844.97;5092384;28;20664;-80
2022/05/11 05:02:21;;;;;;;16.70;15.90;;;;;;;-141.02;100.00;55844.97;5092480;28;20575;-81
2022/05/11 05:04:51;;;;;;;17.90;17.00;;;;;;;-141.02;100.00;55844.97;5092327;28;20682;-80
2022/05/11 05:07:19;;;;;;;18.80;17.90;;;;;;;-141.02;100.00;55844.97;5092295;28;20292;-81
2022/05/11 05:09:46;;;;;;;18.85;17.98;;;;;;;-141.02;100.00;55844.97;5092336;28;20229;-81
2022/05/11 05:12:14;;;;;;;19.95;19.05;;;;;;;-141.02;100.00;55844.97;5092341;28;20614;-81
2022/05/11 05:14:42;;;;;;;19.55;18.65;;;;;;;-141.02;100.00;55844.97;5092330;28;20197;-81
2022/05/11 05:17:11;;;;;;;18.73;17.83;;;;;;;-141.02;100.00;55844.97;5092003;28;20226;-81
2022/05/11 05:19:40;;;;;;;18.38;17.58;;;;;;;-141.02;100.00;55844.97;5091958;28;20200;-81
2022/05/11 05:22:09;;;;;;;18.05;17.25;;;;;;;-141.02;100.00;55844.97;5092220;28;20204;-81
2022/05/11 05:24:36;;;;;;;18.67;17.77;;;;;;;-141.02;100.00;55844.97;5091917;28;20212;-81
2022/05/11 05:27:03;;;;;;;18.73;17.92;;;;;;;-141.02;100.00;55844.97;5091834;28;20229;-81
2022/05/11 05:32:16;;;;;;;16.70;16.00;;;;;;;-141.02;100.00;55844.97;5091950;28;20294;-81
2022/05/11 05:34:44;;;;;;;16.40;15.70;;;;;;;-141.02;100.00;55844.97;5092142;28;20326;-82
2022/05/11 05:37:14;;;;;;;15.73;15.02;;;;;;;-141.02;100.00;55844.97;5092138;28;20198;-82
2022/05/11 05:39:41;;;;;;;16.08;15.38;;;;;;;-141.02;100.00;55844.97;5092137;28;20236;-80
2022/05/11 05:42:09;;;;;;;16.05;15.35;;;;;;;-141.02;100.00;55844.97;5091701;28;20194;-82
2022/05/11 05:44:38;;;;;;;16.10;15.40;;;;;;;-141.02;100.00;55844.97;5091738;28;20270;-82
2022/05/11 05:47:06;;;;;;;16.00;15.40;;;;;;;-141.02;100.00;55844.97;5091673;28;20288;-82
2022/05/11 05:49:33;;;;;;;15.88;15.07;;;;;;;-141.02;100.00;55844.97;5091638;28;20255;-83
2022/05/11 05:52:01;;;;;;;15.90;15.20;;;;;;;-141.02;100.00;55844.97;5091904;28;20226;-82
2022/05/11 05:54:32;;;;;;;15.60;14.90;;;;;;;-141.02;100.00;55844.97;5091600;28;20229;-82
2022/05/11 05:56:59;;;;;;;15.90;15.10;;;;;;;-141.02;100.00;55844.97;5091581;28;20271;-83
2022/05/11 05:59:27;;;;;;;17.33;16.55;;;;;;;-141.02;100.00;55844.97;5091530;28;20280;-82
2022/05/11 06:01:54;;;;;;;16.55;15.75;;;;;;;-141.02;100.00;55844.97;5091815;28;20677;-83
2022/05/11 06:04:22;;;;;;;16.23;15.52;;;;;;;-141.02;100.00;55844.97;5091823;28;20280;-83
2022/05/11 06:06:48;;;;;;;16.98;16.17;;;;;;;-141.02;100.00;55844.97;5091855;28;20578;-83
2022/05/11 06:09:16;;;;;;;16.77;15.98;;;;;;;-141.02;100.00;55844.97;5093006;28;20223;-81
2022/05/11 06:11:45;;;;;;;16.40;15.60;;;;;;;-141.02;100.00;55844.97;5095066;28;20596;-82
2022/05/11 06:14:12;;;;;;;16.70;15.90;;;;;;;-141.02;100.00;55844.97;5095095;28;20190;-82
2022/05/11 06:16:39;;;;;;;16.35;15.55;;;;;;;-141.02;100.00;55844.97;5095058;28;20243;-83
2022/05/11 06:19:06;;;;;;;16.48;15.57;;;;;;;-141.02;100.00;55844.97;5095254;28;20209;-83
2022/05/11 06:21:34;;;;;;;16.05;15.15;;;;;;;-141.02;100.00;55844.97;5095239;28;20190;-85
2022/05/11 06:24:02;;;;;;;16.25;15.45;;;;;;;-141.02;100.00;55844.97;5094863;28;20240;-82
2022/05/11 06:26:29;;;;;;;17.17;16.17;;;;;;;-141.02;100.00;55844.97;5094709;28;20194;-84
2022/05/11 06:28:57;;;;;;;16.73;15.82;;;;;;;-141.02;100.00;55844.97;5095048;28;20278;-83
2022/05/11 06:31:24;;;;;;;16.33;15.45;;;;;;;-141.02;100.00;55844.97;5094727;28;20715;-85
2022/05/11 06:33:53;;;;;;;17.15;16.15;;;;;;;-141.02;100.00;55844.97;5095007;28;20190;-83
2022/05/11 06:36:23;;;;;;;16.35;15.45;;;;;;;-141.02;100.00;55844.97;5094898;28;20277;-80
2022/05/11 06:38:51;;;;;;;16.33;15.43;;;;;;;-141.02;100.00;55844.97;5094906;28;20204;-83
2022/05/11 06:41:23;;;;;;;16.60;15.70;;;;;;;-141.02;100.00;55844.97;5094572;28;20198;-82
